Time;durP1;ratioP1;P1;durP2;ratioP2;P2;SDS_P1;SDS_P2;PMS_P1;PMS_P2;Temp;Humidity;BMP_temperature;BMP_pressure;BME280_temperature;BME280_humidity;BME280_pressure;Samples;Min_cycle;Max_cycle;Signal;HPM_P1;HPM_P2
2021/07/09 00:08:08;;;;;;;8.85;7.95;;;;;;;23.39;92.42;100631.66;1220186;22;21488;-74
2021/07/09 00:43:43;;;;;;;14.30;9.98;;;;;;;22.99;94.46;100607.63;1501056;22;20874;-71
2021/07/09 00:54:42;;;;;;;14.00;11.00;;;;;;;21.93;100.00;100594.03;1520720;22;20752;-72
2021/07/09 01:08:14;;;;;;;15.98;11.52;;;;;;;21.90;100.00;100614.13;1220549;22;20179;-74
2021/07/09 01:18:17;;;;;;;15.48;11.40;;;;;;;22.29;99.25;100603.75;1218357;22;20157;-72
2021/07/09 01:21:09;;;;;;;16.60;11.85;;;;;;;22.45;98.90;100604.38;1218360;22;21448;-73
2021/07/09 01:55:20;;;;;;;13.82;10.40;;;;;;;22.51;97.24;100596.19;3724922;22;21058;-76
2021/07/09 02:05:41;;;;;;;13.38;9.75;;;;;;;22.49;96.00;100594.63;1219193;22;20188;-69
2021/07/09 02:16:00;;;;;;;11.38;10.10;;;;;;;22.57;96.22;100603.59;1289029;22;21084;-72
2021/07/09 02:18:51;;;;;;;16.15;11.98;;;;;;;22.38;95.74;100601.38;1216179;22;21116;-73
2021/07/09 02:47:52;;;;;;;13.30;10.65;;;;;;;21.52;98.56;100601.84;1210894;22;21443;-71
2021/07/09 03:31:16;;;;;;;16.92;9.77;;;;;;;22.36;91.79;100597.22;1280783;22;21849;-73
2021/07/09 03:51:31;;;;;;;12.43;8.40;;;;;;;22.91;89.02;100589.16;3758869;22;20039;-76
2021/07/09 04:01:34;;;;;;;14.85;9.68;;;;;;;22.57;90.52;100594.94;1228515;22;20166;-71
2021/07/09 04:22:27;;;;;;;20.90;11.48;;;;;;;22.63;92.38;100599.75;3716938;22;20420;-73
2021/07/09 04:29:51;;;;;;;16.05;11.48;;;;;;;23.56;88.05;100593.16;3581145;40;20444;-70
2021/07/09 04:44:43;;;;;;;19.52;12.05;;;;;;;23.84;86.79;100607.59;2904009;22;20082;-70
2021/07/09 04:47:08;;;;;;;15.35;12.23;;;;;;;24.15;85.39;100603.59;3621308;39;20083;-67
2021/07/09 04:49:34;;;;;;;15.23;12.02;;;;;;;24.16;86.84;100602.66;3621012;39;20048;-68
2021/07/09 04:52:00;;;;;;;14.65;12.18;;;;;;;24.45;84.24;100607.34;3613205;39;20076;-71
2021/07/09 04:54:26;;;;;;;15.85;11.70;;;;;;;24.52;84.34;100607.72;3623938;39;20048;-69
2021/07/09 04:56:51;;;;;;;16.63;10.85;;;;;;;24.63;83.65;100602.50;3611983;39;20035;-68
2021/07/09 04:59:17;;;;;;;11.55;9.90;;;;;;;24.66;84.72;100603.09;3611674;39;20113;-71
2021/07/09 05:01:43;;;;;;;12.40;9.32;;;;;;;24.35;84.44;100601.16;3613991;39;20113;-70
2021/07/09 05:04:10;;;;;;;15.13;9.32;;;;;;;24.93;81.35;100602.81;3615881;39;20064;-69
2021/07/09 05:06:36;;;;;;;10.07;8.98;;;;;;;24.65;81.74;100611.88;3615631;39;20028;-69
2021/07/09 05:09:07;;;;;;;11.60;9.02;;;;;;;24.65;81.37;100611.88;3615201;39;20040;-70
2021/07/09 05:11:38;;;;;;;10.77;8.68;;;;;;;24.83;80.55;100604.47;3614186;39;20069;-70
2021/07/09 05:14:05;;;;;;;10.57;8.32;;;;;;;25.32;78.53;100606.66;3611682;39;20078;-71
2021/07/09 05:16:35;;;;;;;12.57;8.00;;;;;;;25.21;76.86;100602.31;3614715;39;20028;-69
2021/07/09 05:19:04;;;;;;;10.35;8.23;;;;;;;25.65;76.14;100604.81;3614408;39;20478;-70
2021/07/09 05:21:32;;;;;;;10.32;7.85;;;;;;;25.73;75.64;100597.22;3612045;39;20038;-69
2021/07/09 05:23:59;;;;;;;8.43;6.80;;;;;;;25.24;75.44;100598.63;3612847;39;20040;-70
2021/07/09 05:26:25;;;;;;;7.03;6.32;;;;;;;25.95;73.34;100587.69;3614015;39;20068;-70
2021/07/09 05:28:52;;;;;;;9.85;6.60;;;;;;;26.07;73.67;100592.72;3614008;39;20039;-71
2021/07/09 05:31:18;;;;;;;7.47;6.05;;;;;;;25.81;72.83;100593.97;3613570;39;20036;-70
2021/07/09 05:33:44;;;;;;;8.30;5.55;;;;;;;26.22;70.71;100588.88;3607910;40;20036;-69
2021/07/09 05:36:10;;;;;;;10.70;5.45;;;;;;;26.41;69.91;100588.13;3607721;40;20040;-68
2021/07/09 05:38:35;;;;;;;5.65;5.15;;;;;;;26.34;70.29;100589.63;3607602;40;20319;-68
2021/07/09 05:41:03;;;;;;;6.68;5.07;;;;;;;26.55;69.22;100588.63;3607516;40;20095;-70
2021/07/09 05:45:54;;;;;;;8.13;5.40;;;;;;;26.98;68.74;100598.06;3612955;39;20036;-69
2021/07/09 05:48:21;;;;;;;6.35;5.35;;;;;;;27.26;69.01;100598.13;3597169;40;20036;-69
2021/07/09 05:50:47;;;;;;;5.38;4.88;;;;;;;27.04;67.21;100594.94;3607276;40;20096;-71
2021/07/09 05:53:13;;;;;;;5.03;4.50;;;;;;;27.29;66.50;100605.72;3607423;40;20417;-70
2021/07/09 05:55:39;;;;;;;7.20;4.70;;;;;;;27.48;66.92;100601.50;3606871;40;20043;-69
2021/07/09 05:58:04;;;;;;;5.07;4.45;;;;;;;27.46;64.57;100593.81;3607365;40;20108;-69
2021/07/09 06:00:30;;;;;;;5.03;4.50;;;;;;;27.66;64.21;100595.47;3607715;40;20040;-69
2021/07/09 06:02:56;;;;;;;5.30;3.92;;;;;;;27.60;62.63;100603.88;3607538;40;20048;-68
2021/07/09 06:05:22;;;;;;;6.28;3.90;;;;;;;27.81;60.13;100590.69;3607213;40;20098;-71
2021/07/09 06:07:48;;;;;;;4.75;3.65;;;;;;;27.86;59.15;100588.47;3606093;40;20035;-72
2021/07/09 06:10:14;;;;;;;4.15;3.75;;;;;;;28.22;58.69;100586.00;3606381;40;20039;-70
2021/07/09 06:12:40;;;;;;;4.65;4.20;;;;;;;27.89;61.20;100593.44;3605679;40;20031;-71
2021/07/09 06:15:06;;;;;;;4.32;3.92;;;;;;;28.11;60.00;100578.28;3597874;40;20036;-70
2021/07/09 06:17:32;;;;;;;6.07;4.18;;;;;;;28.11;58.42;100585.28;3607893;40;20065;-72
2021/07/09 06:19:59;;;;;;;4.20;3.80;;;;;;;28.37;56.11;100580.28;3607371;40;20052;-70
2021/07/09 06:22:25;;;;;;;4.97;3.70;;;;;;;28.62;56.45;100580.56;3597947;40;20033;-71
2021/07/09 06:24:51;;;;;;;8.43;4.38;;;;;;;28.63;56.60;100576.94;3607224;39;20044;-74
2021/07/09 06:27:17;;;;;;;5.32;3.95;;;;;;;28.71;55.58;100576.22;3608089;40;20029;-70
2021/07/09 06:29:42;;;;;;;4.95;4.13;;;;;;;28.50;57.00;100579.03;3597735;40;20047;-70
2021/07/09 06:32:08;;;;;;;6.60;4.05;;;;;;;28.69;54.80;100571.13;3607572;40;20036;-70
2021/07/09 06:34:34;;;;;;;4.43;4.00;;;;;;;28.63;55.25;100569.09;3598944;40;20044;-69
2021/07/09 06:36:59;;;;;;;3.63;3.33;;;;;;;28.83;53.93;100575.91;3607622;40;20036;-70
2021/07/09 06:39:25;;;;;;;6.07;4.15;;;;;;;29.12;53.23;100570.50;3606725;40;20093;-70
2021/07/09 06:41:51;;;;;;;4.03;3.38;;;;;;;29.10;53.93;100575.91;3597019;40;20416;-71
2021/07/09 06:49:29;;;;;;;4.70;4.05;;;;;;;29.46;52.45;100557.63;3622151;39;20065;-72
2021/07/09 06:51:54;;;;;;;4.65;3.80;;;;;;;29.92;52.28;100562.66;3625603;39;20099;-69
2021/07/09 06:54:20;;;;;;;7.00;3.83;;;;;;;30.03;52.52;100565.00;3626874;39;20043;-69
2021/07/09 06:56:45;;;;;;;5.68;3.83;;;;;;;29.94;52.81;100565.94;3626595;39;20032;-70
2021/07/09 06:59:11;;;;;;;5.65;3.65;;;;;;;29.81;50.73;100563.69;3626439;39;20039;-71
2021/07/09 07:01:36;;;;;;;4.38;3.90;;;;;;;30.00;50.82;100564.50;3626933;39;20031;-71
2021/07/09 07:04:02;;;;;;;5.13;3.90;;;;;;;29.82;50.80;100561.91;3626171;39;20031;-71
2021/07/09 07:06:27;;;;;;;6.50;3.80;;;;;;;30.11;51.50;100557.19;3625942;39;20408;-70
2021/07/09 07:08:53;;;;;;;4.75;3.80;;;;;;;30.15;50.88;100552.50;3626091;39;20117;-71
2021/07/09 07:11:18;;;;;;;5.50;3.50;;;;;;;30.36;50.61;100556.44;3626081;39;20027;-70
2021/07/09 07:13:44;;;;;;;3.80;3.45;;;;;;;30.02;51.70;100560.75;3626724;39;20417;-70
2021/07/09 07:16:09;;;;;;;4.35;3.72;;;;;;;29.81;50.50;100545.34;3628586;39;20042;-70
2021/07/09 07:18:35;;;;;;;7.88;3.80;;;;;;;30.37;48.79;100547.56;3628463;39;20047;-70
2021/07/09 07:21:01;;;;;;;5.60;3.67;;;;;;;30.53;48.33;100547.66;3628595;39;20031;-68
2021/07/09 07:23:27;;;;;;;6.00;4.10;;;;;;;30.32;50.42;100549.84;3628273;39;20032;-69
2021/07/09 07:25:53;;;;;;;7.72;3.75;;;;;;;30.42;48.41;100553.19;3616785;39;20159;-69
2021/07/09 07:28:20;;;;;;;6.13;3.42;;;;;;;30.71;47.39;100548.41;3623794;39;20031;-69
2021/07/09 07:30:45;;;;;;;6.00;3.95;;;;;;;30.44;49.52;100545.97;3623709;39;20341;-69
2021/07/09 07:33:10;;;;;;;7.22;4.00;;;;;;;29.95;49.86;100541.34;3623606;39;20043;-68
2021/07/09 07:35:38;;;;;;;7.53;3.80;;;;;;;30.28;47.89;100543.25;3613877;39;20401;-69
2021/07/09 07:38:04;;;;;;;6.80;3.60;;;;;;;30.09;48.28;100537.38;3623301;39;20042;-69
2021/07/09 07:40:30;;;;;;;5.18;3.60;;;;;;;30.04;49.08;100534.38;3613809;39;20298;-70
2021/07/09 07:42:55;;;;;;;6.95;3.90;;;;;;;31.35;46.74;100539.91;3623873;39;20045;-69
2021/07/09 07:45:21;;;;;;;6.20;3.67;;;;;;;30.89;49.32;100534.34;3613784;39;20032;-70
2021/07/09 07:47:46;;;;;;;9.57;4.10;;;;;;;30.23;47.45;100532.34;3624426;39;20051;-70
2021/07/09 07:50:29;;;;;;;5.03;3.58;;;;;;;30.29;47.51;100529.13;3624355;39;20043;-70
2021/07/09 07:52:55;;;;;;;7.78;3.95;;;;;;;30.75;47.12;100535.75;3602093;40;20418;-70
2021/07/09 07:55:20;;;;;;;8.63;3.80;;;;;;;32.02;45.68;100523.00;3604263;39;20036;-69
2021/07/09 07:57:46;;;;;;;5.97;3.58;;;;;;;31.21;45.12;100532.66;3593560;40;20040;-69
2021/07/09 08:00:12;;;;;;;4.38;3.40;;;;;;;31.25;45.87;100528.72;3603326;40;20028;-68
2021/07/09 08:02:39;;;;;;;4.32;3.40;;;;;;;31.86;44.07;100527.44;3603033;40;20036;-69
2021/07/09 08:05:06;;;;;;;4.95;3.05;;;;;;;30.95;43.53;100534.56;3594870;40;20032;-70
2021/07/09 08:07:31;;;;;;;5.93;3.13;;;;;;;31.63;42.74;100521.22;3604469;40;20036;-70
2021/07/09 08:09:57;;;;;;;8.93;3.33;;;;;;;31.11;43.86;100525.88;3604952;40;20407;-69
2021/07/09 08:12:22;;;;;;;4.63;3.08;;;;;;;31.32;42.06;100529.69;3604874;40;20071;-70
2021/07/09 08:14:47;;;;;;;5.75;3.17;;;;;;;32.13;41.98;100527.13;3604192;40;20040;-71
2021/07/09 08:17:13;;;;;;;8.70;3.20;;;;;;;31.66;39.80;100532.22;3604101;40;20032;-70
2021/07/09 08:19:38;;;;;;;4.68;3.15;;;;;;;31.95;40.45;100522.03;3593863;40;20036;-69
2021/07/09 08:22:04;;;;;;;10.65;3.45;;;;;;;31.71;41.74;100519.41;3603555;40;20098;-71
2021/07/09 08:24:30;;;;;;;11.85;3.42;;;;;;;31.19;42.13;100513.59;3603033;40;20062;-70
2021/07/09 08:26:56;;;;;;;6.65;3.47;;;;;;;31.07;42.79;100525.38;3606261;40;20407;-70
2021/07/09 08:29:21;;;;;;;4.30;3.20;;;;;;;31.45;43.19;100518.75;3607377;40;20029;-69
2021/07/09 08:31:47;;;;;;;5.80;3.20;;;;;;;31.38;41.20;100509.84;3607939;40;21329;-71
2021/07/09 08:34:12;;;;;;;5.28;3.22;;;;;;;31.84;41.35;100508.34;3608193;40;20284;-69
2021/07/09 08:36:38;;;;;;;5.22;3.20;;;;;;;32.24;41.64;100505.69;3607504;40;20048;-71
2021/07/09 08:39:04;;;;;;;5.88;3.10;;;;;;;31.88;42.47;100507.88;3606759;40;20091;-71
2021/07/09 08:41:30;;;;;;;4.45;3.15;;;;;;;31.94;40.58;100507.22;3606640;40;20162;-70
2021/07/09 08:43:55;;;;;;;7.55;3.50;;;;;;;31.80;40.45;100496.53;3607020;40;20032;-72
2021/07/09 08:46:23;;;;;;;7.10;3.47;;;;;;;31.59;42.52;100497.06;3606948;40;20044;-70
2021/07/09 08:48:49;;;;;;;4.85;3.28;;;;;;;32.13;42.62;100495.53;3606856;40;20052;-70
2021/07/09 08:51:15;;;;;;;7.65;3.88;;;;;;;32.24;40.30;100492.53;3607644;39;20106;-71
2021/07/09 08:53:40;;;;;;;6.93;3.40;;;;;;;33.30;39.25;100497.09;3596340;40;20385;-71
2021/07/09 08:56:06;;;;;;;7.32;3.20;;;;;;;32.52;39.27;100490.31;3594746;40;20395;-69
2021/07/09 08:58:32;;;;;;;3.83;3.40;;;;;;;31.83;39.07;100494.41;3592771;40;20033;-69
2021/07/09 09:00:58;;;;;;;8.63;4.80;;;;;;;32.39;38.44;100490.81;3593850;40;20037;-69
2021/07/09 09:03:25;;;;;;;5.15;3.42;;;;;;;32.68;38.54;100485.78;3591294;40;20108;-70
2021/07/09 09:05:59;;;;;;;5.93;5.10;;;;;;;33.38;36.97;100490.97;3592636;40;20040;-69
2021/07/09 09:08:24;;;;;;;6.75;4.57;;;;;;;32.13;37.68;100506.84;3594308;40;20118;-71
2021/07/09 09:10:53;;;;;;;6.30;3.33;;;;;;;32.21;37.49;100496.31;3594131;40;20037;-71
2021/07/09 09:13:21;;;;;;;6.50;3.28;;;;;;;31.85;36.96;100492.44;3593551;40;20043;-71
2021/07/09 09:16:06;;;;;;;3.92;2.53;;;;;;;32.29;37.89;100490.19;3594016;40;20307;-70
2021/07/09 09:18:37;;;;;;;5.78;2.97;;;;;;;32.21;37.51;100491.03;3592730;40;20033;-70
2021/07/09 09:21:10;;;;;;;6.63;3.30;;;;;;;32.23;37.08;100483.78;3593082;40;20047;-71
2021/07/09 09:23:51;;;;;;;5.32;3.53;;;;;;;33.08;36.75;100479.50;3593742;40;20084;-68
2021/07/09 09:26:41;;;;;;;5.70;3.42;;;;;;;33.73;36.19;100488.56;3594792;40;20043;-71
2021/07/09 09:29:30;;;;;;;4.43;2.75;;;;;;;32.07;37.09;100486.47;3594078;40;20036;-69
2021/07/09 09:32:02;;;;;;;5.65;3.15;;;;;;;32.21;37.67;100487.56;3555068;40;20497;-70
2021/07/09 09:34:37;;;;;;;6.40;3.67;;;;;;;32.84;37.47;100493.59;3563391;40;20100;-69
2021/07/09 09:37:03;;;;;;;5.38;3.25;;;;;;;32.12;38.39;100492.06;3558356;40;20415;-69
2021/07/09 09:39:28;;;;;;;5.63;3.20;;;;;;;31.32;39.52;100487.63;3561022;40;20038;-69
2021/07/09 09:42:18;;;;;;;7.70;3.42;;;;;;;32.93;37.75;100486.47;3552970;40;20045;-73
2021/07/09 09:44:45;;;;;;;6.22;3.47;;;;;;;33.62;38.07;100488.13;3594071;40;20459;-71
2021/07/09 09:47:13;;;;;;;8.15;3.90;;;;;;;32.68;37.68;100483.16;3593473;40;20036;-69
2021/07/09 09:49:39;;;;;;;5.28;2.90;;;;;;;31.69;38.48;100484.56;3592608;40;20025;-69
2021/07/09 09:52:05;;;;;;;4.43;3.15;;;;;;;32.47;37.98;100482.13;3596525;39;20422;-70
2021/07/09 09:54:35;;;;;;;5.68;2.90;;;;;;;32.67;37.05;100475.41;3583983;40;20045;-71
2021/07/09 09:57:00;;;;;;;5.80;3.22;;;;;;;33.51;35.86;100467.47;3590965;40;20040;-70
2021/07/09 09:59:28;;;;;;;5.15;2.72;;;;;;;32.59;36.98;100468.38;3590503;40;20032;-70
2021/07/09 10:02:05;;;;;;;3.50;2.80;;;;;;;33.23;36.41;100468.00;3591914;40;20052;-70
2021/07/09 10:04:33;;;;;;;4.95;2.88;;;;;;;32.81;38.45;100464.13;3592046;40;20033;-70
2021/07/09 10:07:00;;;;;;;5.70;3.15;;;;;;;32.49;38.89;100466.97;3591239;40;20042;-70
2021/07/09 10:09:28;;;;;;;5.93;2.72;;;;;;;33.30;35.61;100470.75;3590456;40;20568;-69
2021/07/09 10:11:55;;;;;;;5.55;2.78;;;;;;;33.58;35.38;100461.31;3592338;40;20117;-70
2021/07/09 10:14:26;;;;;;;8.38;2.80;;;;;;;33.34;36.33;100465.94;3592875;40;20039;-69
2021/07/09 10:16:59;;;;;;;5.32;3.00;;;;;;;32.39;37.79;100461.84;3584338;40;20033;-70
2021/07/09 10:19:40;;;;;;;4.65;2.63;;;;;;;33.09;37.24;100450.31;3593138;40;20040;-69
2021/07/09 10:22:08;;;;;;;4.85;2.90;;;;;;;32.37;36.85;100453.28;3593739;40;20121;-69
2021/07/09 10:24:43;;;;;;;5.68;2.90;;;;;;;33.53;36.32;100454.94;3593385;40;20033;-71
2021/07/09 10:27:12;;;;;;;6.18;2.90;;;;;;;33.37;35.61;100445.31;3593207;40;20082;-70
2021/07/09 10:29:43;;;;;;;6.45;2.40;;;;;;;32.72;35.94;100442.31;3593728;40;20447;-69
2021/07/09 10:32:10;;;;;;;8.30;2.60;;;;;;;34.02;35.22;100437.63;3593650;40;20114;-70
2021/07/09 10:34:49;;;;;;;4.57;2.55;;;;;;;33.25;35.83;100431.72;3593415;40;20045;-70
2021/07/09 10:37:22;;;;;;;5.43;2.72;;;;;;;33.09;35.74;100436.31;3594290;40;20025;-69
2021/07/09 10:39:50;;;;;;;3.70;2.92;;;;;;;33.37;35.50;100421.56;3594085;40;20059;-70
2021/07/09 10:42:30;;;;;;;4.38;2.90;;;;;;;31.86;38.74;100428.28;3594426;40;20404;-70
2021/07/09 10:45:10;;;;;;;5.35;2.70;;;;;;;33.22;37.27;100420.69;3585113;40;20093;-70
2021/07/09 10:47:48;;;;;;;5.35;2.78;;;;;;;32.95;38.10;100418.56;3593097;40;20036;-69
2021/07/09 10:50:34;;;;;;;6.95;2.80;;;;;;;33.04;37.06;100414.94;3593363;40;20040;-71
2021/07/09 10:53:03;;;;;;;3.78;2.80;;;;;;;33.08;36.83;100408.31;3595998;39;20059;-69
2021/07/09 10:55:48;;;;;;;5.53;2.70;;;;;;;33.53;36.56;100410.06;3592208;40;20041;-70
2021/07/09 10:58:26;;;;;;;5.28;2.60;;;;;;;33.74;34.94;100403.09;3592384;40;20407;-68
2021/07/09 11:01:05;;;;;;;6.97;2.95;;;;;;;33.54;35.44;100407.25;3591844;40;20040;-71
2021/07/09 11:04:08;;;;;;;7.75;2.83;;;;;;;32.85;36.38;100389.81;3585177;40;20032;-71
2021/07/09 11:06:36;;;;;;;3.97;2.70;;;;;;;32.95;35.81;100398.31;3577401;40;20067;-70
2021/07/09 11:09:09;;;;;;;4.28;2.78;;;;;;;33.91;34.86;100409.00;3593871;40;20043;-70
2021/07/09 11:11:43;;;;;;;6.13;2.80;;;;;;;34.20;33.83;100402.91;3584358;40;20036;-70
2021/07/09 11:14:13;;;;;;;2.58;2.38;;;;;;;33.93;34.98;100397.25;3593151;40;20032;-72
2021/07/09 11:16:44;;;;;;;4.25;2.80;;;;;;;34.61;34.16;100396.09;3592709;40;20041;-70
2021/07/09 11:19:22;;;;;;;5.15;2.60;;;;;;;33.76;34.57;100393.16;3592828;40;20036;-70
2021/07/09 11:21:56;;;;;;;7.22;2.78;;;;;;;33.04;36.06;100386.72;3592797;40;20036;-70
2021/07/09 11:24:27;;;;;;;4.15;2.45;;;;;;;32.00;37.36;100393.38;3593039;40;20040;-70
2021/07/09 11:26:58;;;;;;;5.35;2.50;;;;;;;33.80;33.98;100389.16;3592314;40;20222;-70
2021/07/09 11:29:31;;;;;;;8.63;2.60;;;;;;;33.15;34.48;100382.84;3592630;40;20493;-70
2021/07/09 11:32:08;;;;;;;4.82;2.40;;;;;;;33.16;34.09;100381.84;3589215;40;20046;-69
2021/07/09 11:34:49;;;;;;;5.70;2.78;;;;;;;32.86;34.25;100385.38;3593581;40;20148;-70
2021/07/09 11:37:20;;;;;;;4.70;2.30;;;;;;;33.76;33.15;100381.78;3582229;40;20417;-70
2021/07/09 11:39:53;;;;;;;8.77;2.60;;;;;;;34.33;32.15;100372.16;3591752;40;20035;-70
2021/07/09 11:42:22;;;;;;;4.00;2.38;;;;;;;32.72;33.67;100368.50;3593985;40;20383;-70
2021/07/09 11:44:49;;;;;;;3.08;2.40;;;;;;;32.69;32.31;100368.03;3593896;40;20043;-69
2021/07/09 11:47:27;;;;;;;7.90;2.75;;;;;;;33.38;33.05;100369.63;3584623;40;20120;-69
2021/07/09 11:49:58;;;;;;;6.50;2.72;;;;;;;33.15;33.02;100356.50;3583104;40;20040;-70
2021/07/09 11:52:45;;;;;;;4.25;2.40;;;;;;;33.43;32.54;100373.38;3593549;40;20733;-69
2021/07/09 11:55:15;;;;;;;6.35;2.53;;;;;;;34.16;31.71;100372.56;3550362;40;20046;-69
2021/07/09 11:57:42;;;;;;;5.47;2.50;;;;;;;33.02;33.26;100365.00;3586274;40;20036;-70
2021/07/09 12:00:16;;;;;;;3.75;2.67;;;;;;;33.15;32.83;100359.13;3593422;40;20032;-69
2021/07/09 12:02:44;;;;;;;5.75;2.72;;;;;;;33.79;32.95;100349.75;3593618;40;20033;-69
2021/07/09 12:05:11;;;;;;;3.90;2.60;;;;;;;34.61;30.85;100356.44;3592789;40;20037;-70
2021/07/09 12:07:48;;;;;;;4.97;2.90;;;;;;;33.31;33.30;100369.53;3592107;40;20090;-70
2021/07/09 12:10:17;;;;;;;4.07;2.78;;;;;;;32.93;32.57;100355.50;3592500;40;20404;-68
2021/07/09 12:12:44;;;;;;;6.60;2.80;;;;;;;33.97;31.84;100364.19;3592097;40;20032;-69
2021/07/09 12:15:14;;;;;;;5.22;2.47;;;;;;;33.96;32.14;100357.28;3591708;40;20351;-74
2021/07/09 12:17:43;;;;;;;4.77;2.67;;;;;;;33.15;33.57;100354.69;3592247;40;20036;-70
2021/07/09 12:20:21;;;;;;;6.00;3.25;;;;;;;34.09;32.59;100372.53;3581422;40;20065;-69
2021/07/09 12:22:50;;;;;;;4.43;2.70;;;;;;;33.05;32.86;100366.47;3592101;40;20452;-70
2021/07/09 12:25:18;;;;;;;4.15;2.70;;;;;;;33.40;33.25;100368.44;3591851;40;20037;-69
2021/07/09 12:27:47;;;;;;;7.32;2.97;;;;;;;33.50;33.79;100361.13;3592906;40;20419;-70
2021/07/09 12:30:19;;;;;;;5.78;2.90;;;;;;;33.26;33.79;100358.69;3592217;40;20037;-69
2021/07/09 12:32:48;;;;;;;4.13;2.72;;;;;;;34.21;31.52;100346.44;3591594;40;20094;-69
2021/07/09 12:35:15;;;;;;;3.00;2.58;;;;;;;33.90;32.71;100344.81;3591092;40;20041;-70
2021/07/09 12:37:41;;;;;;;6.95;2.75;;;;;;;34.53;32.34;100352.09;3591640;40;20060;-70
2021/07/09 12:40:16;;;;;;;3.38;2.60;;;;;;;33.86;32.36;100351.47;3581288;40;20041;-67
2021/07/09 12:42:42;;;;;;;5.15;2.75;;;;;;;33.19;33.56;100358.59;3592237;40;20114;-70
2021/07/09 12:45:09;;;;;;;6.00;2.53;;;;;;;33.46;33.21;100349.25;3592105;40;20032;-72
2021/07/09 12:47:48;;;;;;;4.13;2.80;;;;;;;32.83;34.14;100344.38;3583880;40;20091;-69
2021/07/09 12:50:21;;;;;;;3.70;2.70;;;;;;;32.67;34.58;100351.56;3593016;40;20401;-70
2021/07/09 12:52:51;;;;;;;5.63;2.70;;;;;;;32.83;33.42;100343.53;3594096;40;20056;-71
2021/07/09 12:55:39;;;;;;;5.40;2.60;;;;;;;32.87;33.30;100343.03;3595088;39;20036;-70
2021/07/09 12:58:12;;;;;;;4.30;2.83;;;;;;;33.34;34.07;100334.88;3585533;40;20040;-68
2021/07/09 13:00:44;;;;;;;6.72;2.60;;;;;;;33.02;33.02;100328.09;3595808;40;20047;-69
2021/07/09 13:03:21;;;;;;;4.63;2.70;;;;;;;33.78;33.73;100333.09;3585925;40;20386;-70
2021/07/09 13:06:00;;;;;;;4.78;2.88;;;;;;;32.94;33.89;100332.59;3597026;40;20407;-70
2021/07/09 13:08:26;;;;;;;6.35;2.83;;;;;;;33.21;34.27;100332.03;3586637;40;20103;-71
2021/07/09 13:11:12;;;;;;;5.13;2.90;;;;;;;32.75;34.43;100333.91;3596879;40;20416;-69
2021/07/09 13:13:47;;;;;;;6.43;2.95;;;;;;;33.91;32.57;100340.38;3586667;40;20044;-69
2021/07/09 13:16:14;;;;;;;3.00;2.65;;;;;;;33.35;34.07;100323.34;3584054;40;20408;-69
2021/07/09 13:18:55;;;;;;;5.90;2.97;;;;;;;33.31;34.08;100329.97;3583437;40;20043;-69
2021/07/09 13:21:24;;;;;;;8.17;2.97;;;;;;;33.46;34.42;100324.72;3592913;40;20048;-71
2021/07/09 13:24:08;;;;;;;5.70;2.40;;;;;;;33.01;33.85;100317.72;3592728;40;20088;-69
2021/07/09 13:26:41;;;;;;;7.45;2.72;;;;;;;32.92;35.03;100331.97;3593362;40;20134;-69
2021/07/09 13:29:25;;;;;;;6.47;2.90;;;;;;;32.92;34.52;100324.84;3593837;40;20040;-71
2021/07/09 13:32:00;;;;;;;5.15;3.03;;;;;;;32.29;34.49;100322.50;3594681;40;20080;-69
2021/07/09 13:34:26;;;;;;;3.55;2.60;;;;;;;33.34;33.41;100324.31;3583419;40;20446;-70
2021/07/09 13:36:53;;;;;;;6.40;2.90;;;;;;;33.22;33.37;100326.59;3593222;40;20404;-69
2021/07/09 13:39:20;;;;;;;7.43;3.08;;;;;;;33.83;32.49;100317.50;3583550;40;20035;-69
2021/07/09 13:41:46;;;;;;;5.47;3.13;;;;;;;32.97;34.35;100321.72;3593286;40;20032;-70
2021/07/09 13:44:12;;;;;;;4.30;3.00;;;;;;;32.77;33.97;100318.72;3584057;40;20040;-70
2021/07/09 13:46:38;;;;;;;4.15;2.70;;;;;;;32.97;33.83;100314.63;3592801;40;20293;-70
2021/07/09 13:49:06;;;;;;;3.38;2.90;;;;;;;33.24;33.65;100314.03;3582937;40;20308;-71
2021/07/09 13:51:34;;;;;;;4.30;2.83;;;;;;;32.93;33.25;100318.59;3594087;40;20036;-70
2021/07/09 13:54:00;;;;;;;4.10;2.75;;;;;;;33.04;33.51;100298.94;3594197;40;20041;-71
2021/07/09 13:56:25;;;;;;;4.43;2.80;;;;;;;32.65;33.27;100309.59;3599519;39;20304;-70
2021/07/09 13:58:51;;;;;;;4.30;2.60;;;;;;;32.72;33.41;100291.28;3604991;40;20051;-69
2021/07/09 14:01:18;;;;;;;6.78;2.55;;;;;;;32.98;32.97;100310.19;3594789;40;20038;-69
2021/07/09 14:03:44;;;;;;;4.43;2.80;;;;;;;33.50;31.30;100302.25;3593855;40;20040;-69
2021/07/09 14:06:13;;;;;;;5.07;3.10;;;;;;;33.17;31.62;100304.41;3603400;40;20040;-69
2021/07/09 14:08:40;;;;;;;9.32;2.90;;;;;;;32.90;32.03;100299.69;3603298;40;20391;-70
2021/07/09 14:11:07;;;;;;;4.18;2.95;;;;;;;33.07;32.00;100302.03;3594457;40;20098;-71
2021/07/09 14:13:36;;;;;;;5.70;2.95;;;;;;;32.59;32.17;100298.94;3604389;40;20028;-69
2021/07/09 14:16:03;;;;;;;4.57;2.78;;;;;;;32.84;32.19;100293.28;3604575;40;20048;-71
2021/07/09 14:18:29;;;;;;;5.07;2.53;;;;;;;33.26;32.25;100287.47;3604587;40;20038;-69
2021/07/09 14:20:56;;;;;;;5.22;2.78;;;;;;;33.63;32.17;100287.44;3593384;40;20299;-68
2021/07/09 14:23:23;;;;;;;3.47;3.00;;;;;;;32.88;33.10;100283.22;3595113;40;20046;-71
2021/07/09 14:25:51;;;;;;;5.88;2.97;;;;;;;32.59;33.09;100275.22;3604615;40;20036;-70
2021/07/09 14:28:18;;;;;;;5.38;2.60;;;;;;;33.07;32.50;100277.47;3603565;40;20068;-70
2021/07/09 14:30:44;;;;;;;5.68;3.17;;;;;;;32.46;33.00;100269.75;3603838;40;20398;-69
2021/07/09 14:33:10;;;;;;;5.15;2.72;;;;;;;32.67;33.41;100264.63;3603467;40;20129;-75
2021/07/09 14:35:37;;;;;;;3.08;2.70;;;;;;;32.49;32.41;100267.56;3604147;40;20040;-69
2021/07/09 14:38:04;;;;;;;4.90;2.80;;;;;;;32.79;32.64;100260.56;3604119;40;20479;-71
2021/07/09 14:40:32;;;;;;;5.35;3.15;;;;;;;32.77;32.98;100263.38;3603993;40;20036;-70
2021/07/09 14:42:59;;;;;;;5.47;3.05;;;;;;;33.19;32.96;100260.22;3593617;40;20031;-70
2021/07/09 14:45:27;;;;;;;5.28;2.92;;;;;;;32.40;33.50;100258.91;3604074;40;20043;-68
2021/07/09 14:47:53;;;;;;;3.95;2.97;;;;;;;32.43;33.95;100257.72;3603561;40;20055;-69
2021/07/09 14:50:20;;;;;;;3.83;3.42;;;;;;;32.82;33.69;100254.97;3604156;40;20040;-70
2021/07/09 14:52:46;;;;;;;4.22;3.10;;;;;;;32.49;34.01;100258.88;3603442;40;20032;-70
2021/07/09 14:55:14;;;;;;;5.25;2.80;;;;;;;33.46;32.67;100254.28;3602726;40;20137;-69
2021/07/09 14:57:40;;;;;;;5.10;3.20;;;;;;;32.63;34.73;100258.06;3600053;39;20080;-69
2021/07/09 15:00:12;;;;;;;6.10;3.20;;;;;;;31.96;35.50;100246.50;3592342;40;20107;-68
2021/07/09 15:02:39;;;;;;;6.88;3.13;;;;;;;32.26;35.00;100256.19;3602983;39;20064;-69
2021/07/09 15:05:07;;;;;;;4.70;3.22;;;;;;;32.12;36.14;100243.78;3602722;39;20072;-69
2021/07/09 15:07:33;;;;;;;3.55;2.97;;;;;;;31.92;36.05;100242.59;3601357;40;20039;-70
2021/07/09 15:10:00;;;;;;;4.45;3.25;;;;;;;32.07;36.36;100251.41;3592027;40;20068;-69
2021/07/09 15:12:27;;;;;;;6.43;3.47;;;;;;;31.62;39.41;100257.34;3601075;40;20040;-69
2021/07/09 15:14:52;;;;;;;6.82;3.05;;;;;;;32.08;38.60;100253.03;3592569;40;20491;-69
2021/07/09 15:17:18;;;;;;;4.93;3.35;;;;;;;31.97;39.06;100248.16;3598910;39;20031;-72
2021/07/09 15:19:48;;;;;;;4.75;3.00;;;;;;;31.83;38.80;100249.69;3612993;39;20059;-71
2021/07/09 15:22:15;;;;;;;4.05;3.40;;;;;;;31.62;39.51;100246.81;3601854;39;20033;-69
2021/07/09 15:24:41;;;;;;;4.03;3.30;;;;;;;31.70;40.28;100248.59;3606374;40;20433;-72
2021/07/09 15:29:36;;;;;;;7.55;3.55;;;;;;;31.72;39.42;100247.44;3629035;39;21273;-71
2021/07/09 15:32:03;;;;;;;6.75;3.08;;;;;;;31.95;39.38;100250.16;3625393;39;20329;-69
2021/07/09 15:34:28;;;;;;;5.07;3.30;;;;;;;31.92;39.40;100253.94;3610771;39;20406;-69
2021/07/09 15:36:54;;;;;;;4.78;2.95;;;;;;;31.44;40.62;100257.56;3616725;39;20039;-69
2021/07/09 15:39:20;;;;;;;11.05;2.95;;;;;;;31.03;40.08;100253.41;3616456;39;20383;-69
2021/07/09 15:41:46;;;;;;;6.95;3.30;;;;;;;31.47;39.54;100248.53;3616949;39;20035;-70
2021/07/09 15:44:14;;;;;;;4.70;3.10;;;;;;;31.29;39.78;100253.16;3617695;39;20124;-69
2021/07/09 15:46:40;;;;;;;4.68;3.80;;;;;;;31.31;39.62;100259.91;3607226;39;20120;-71